createdAt,value
2018-05-25T00:00:01.084Z,37
2018-05-25T00:01:01.796Z,37
2018-05-25T00:02:02.518Z,37
2018-05-25T00:03:03.236Z,37
2018-05-25T00:04:03.947Z,37
2018-05-25T00:05:04.671Z,37
2018-05-25T00:06:05.398Z,37
2018-05-25T00:07:06.112Z,37
2018-05-25T00:08:06.830Z,37
2018-05-25T00:09:07.552Z,37
2018-05-25T00:10:08.264Z,37
2018-05-25T00:11:08.989Z,37
2018-05-25T00:12:09.703Z,37
2018-05-25T00:13:10.417Z,37
2018-05-25T00:14:11.133Z,37
2018-05-25T00:15:11.848Z,37
2018-05-25T00:16:12.561Z,37
2018-05-25T00:17:13.285Z,37
2018-05-25T00:18:13.999Z,37
2018-05-25T00:19:14.711Z,37
2018-05-25T00:20:15.426Z,37
2018-05-25T00:21:16.153Z,37
2018-05-25T00:22:16.867Z,37
2018-05-25T00:23:17.581Z,36
2018-05-25T00:24:18.295Z,37
2018-05-25T00:25:19.011Z,37
2018-05-25T00:26:19.735Z,36
2018-05-25T00:27:20.449Z,37
2018-05-25T00:28:21.174Z,37
2018-05-25T00:29:21.887Z,36
2018-05-25T00:30:22.600Z,36
2018-05-25T00:31:23.312Z,36
2018-05-25T00:32:24.037Z,36
2018-05-25T00:33:24.750Z,37
2018-05-25T00:34:25.475Z,36
2018-05-25T00:35:26.189Z,36
2018-05-25T00:36:26.913Z,36
2018-05-25T00:37:27.627Z,36
2018-05-25T00:38:28.339Z,36
2018-05-25T00:39:29.056Z,36
2018-05-25T00:40:29.767Z,36
2018-05-25T00:41:30.482Z,36
2018-05-25T00:42:31.196Z,36
2018-05-25T00:43:31.908Z,36
2018-05-25T00:44:32.620Z,36
2018-05-25T00:45:33.333Z,36
2018-05-25T00:46:34.046Z,36
2018-05-25T00:47:34.763Z,36
2018-05-25T00:48:35.473Z,36
2018-05-25T00:49:36.187Z,36
2018-05-25T00:50:36.901Z,36
2018-05-25T00:51:37.625Z,36
2018-05-25T00:52:38.339Z,36
2018-05-25T00:53:39.067Z,36
2018-05-25T00:54:39.764Z,36
2018-05-25T00:55:40.477Z,36
2018-05-25T00:56:41.200Z,36
2018-05-25T00:57:41.916Z,36
2018-05-25T00:58:42.629Z,36
2018-05-25T00:59:43.343Z,36
2018-05-25T01:00:44.057Z,36
2018-05-25T01:01:44.772Z,36
2018-05-25T01:02:45.497Z,36
2018-05-25T01:03:46.211Z,36
2018-05-25T01:04:46.925Z,36
2018-05-25T01:05:47.638Z,36
2018-05-25T01:06:48.353Z,36
2018-05-25T01:07:49.066Z,36
2018-05-25T01:08:49.781Z,36
2018-05-25T01:09:50.493Z,36
2018-05-25T01:10:51.207Z,36
2018-05-25T01:11:51.919Z,36
2018-05-25T01:12:52.632Z,36
2018-05-25T01:13:53.358Z,36
2018-05-25T01:14:54.075Z,36
2018-05-25T01:15:54.798Z,35
2018-05-25T01:16:55.511Z,35
2018-05-25T01:17:56.228Z,35
2018-05-25T01:18:56.950Z,35
2018-05-25T01:19:57.664Z,35
2018-05-25T01:20:58.379Z,35
2018-05-25T01:21:59.092Z,35
2018-05-25T01:22:59.807Z,35
2018-05-25T01:24:00.518Z,35
2018-05-25T01:25:01.235Z,34
2018-05-25T01:26:01.956Z,35
2018-05-25T01:27:02.670Z,34
2018-05-25T01:28:03.400Z,34
2018-05-25T01:29:04.111Z,35
2018-05-25T01:30:04.827Z,34
2018-05-25T01:31:05.547Z,35
2018-05-25T01:32:06.262Z,35
2018-05-25T01:33:06.973Z,35
2018-05-25T01:34:07.686Z,34
2018-05-25T01:35:08.400Z,35
2018-05-25T01:36:09.123Z,35
2018-05-25T01:37:09.836Z,35
2018-05-25T01:38:10.551Z,35
2018-05-25T01:39:11.276Z,35
2018-05-25T01:40:11.990Z,34
2018-05-25T01:41:12.704Z,34
2018-05-25T01:42:13.418Z,35
2018-05-25T01:43:14.131Z,34
2018-05-25T01:44:14.846Z,35
2018-05-25T01:45:15.570Z,34
2018-05-25T01:46:16.283Z,34
2018-05-25T01:47:16.995Z,35
2018-05-25T01:48:17.710Z,34
2018-05-25T01:49:18.423Z,34
2018-05-25T01:50:19.149Z,34
2018-05-25T01:51:19.864Z,34
2018-05-25T01:52:20.589Z,34
2018-05-25T01:53:21.313Z,34
2018-05-25T01:54:22.028Z,34
2018-05-25T01:55:22.745Z,34
2018-05-25T01:56:23.456Z,34
2018-05-25T01:57:24.170Z,34
2018-05-25T01:58:24.883Z,34
2018-05-25T01:59:25.596Z,34
2018-05-25T02:00:26.310Z,34
2018-05-25T02:01:27.031Z,34
2018-05-25T02:02:27.738Z,34
2018-05-25T02:03:28.452Z,34
2018-05-25T02:04:29.166Z,34
2018-05-25T02:05:29.881Z,34
2018-05-25T02:06:30.593Z,34
2018-05-25T02:07:31.307Z,34
2018-05-25T02:08:32.020Z,34
2018-05-25T02:09:32.745Z,34
2018-05-25T02:10:33.458Z,34
2018-05-25T02:11:34.177Z,34
2018-05-25T02:12:34.896Z,34
2018-05-25T02:13:35.611Z,33
2018-05-25T02:14:36.325Z,34
2018-05-25T02:15:37.050Z,33
2018-05-25T02:16:37.763Z,33
2018-05-25T02:17:38.486Z,33
2018-05-25T02:18:39.210Z,33
2018-05-25T02:19:39.924Z,33
2018-05-25T02:20:40.653Z,33
2018-05-25T02:21:41.378Z,33
2018-05-25T02:22:42.090Z,33
2018-05-25T02:23:42.802Z,33
2018-05-25T02:24:43.526Z,33
2018-05-25T02:25:44.241Z,33
2018-05-25T02:26:44.956Z,33
2018-05-25T02:27:45.668Z,33
2018-05-25T02:28:46.392Z,33
2018-05-25T02:29:47.105Z,33
2018-05-25T02:30:47.820Z,33
2018-05-25T02:31:48.534Z,33
2018-05-25T02:32:49.258Z,33
2018-05-25T02:33:49.976Z,33
2018-05-25T02:34:50.698Z,32
2018-05-25T02:35:51.411Z,33
2018-05-25T02:36:52.124Z,33
2018-05-25T02:37:52.836Z,33
2018-05-25T02:38:53.549Z,33
2018-05-25T02:39:54.265Z,33
2018-05-25T02:40:54.988Z,33
2018-05-25T02:41:55.707Z,33
2018-05-25T02:42:56.415Z,33
2018-05-25T02:43:57.140Z,33
2018-05-25T02:44:57.866Z,32
2018-05-25T02:45:58.591Z,33
2018-05-25T02:46:59.303Z,33
2018-05-25T02:48:00.018Z,33
2018-05-25T02:49:00.730Z,33
2018-05-25T02:50:01.456Z,33
2018-05-25T02:51:02.168Z,32
2018-05-25T02:52:02.896Z,32
2018-05-25T02:53:03.620Z,32
2018-05-25T02:54:04.333Z,33
2018-05-25T02:55:05.049Z,33
2018-05-25T02:56:05.774Z,32
2018-05-25T02:57:06.490Z,32
2018-05-25T02:58:07.200Z,33
2018-05-25T02:59:07.913Z,33
2018-05-25T03:00:08.627Z,32
2018-05-25T03:01:09.340Z,33
2018-05-25T03:02:10.053Z,33
2018-05-25T03:03:10.784Z,32
2018-05-25T03:04:11.494Z,33
2018-05-25T03:05:12.224Z,32
2018-05-25T03:06:12.939Z,32
2018-05-25T03:07:13.653Z,32
2018-05-25T03:08:14.371Z,32
2018-05-25T03:09:15.085Z,32
2018-05-25T03:10:15.799Z,32
2018-05-25T03:11:16.514Z,32
2018-05-25T03:12:17.236Z,32
2018-05-25T03:13:17.951Z,32
2018-05-25T03:14:18.676Z,32
2018-05-25T03:15:19.391Z,32
2018-05-25T03:16:20.106Z,32
2018-05-25T03:17:20.818Z,32
2018-05-25T03:18:21.531Z,32
2018-05-25T03:19:22.247Z,31
2018-05-25T03:20:22.958Z,32
2018-05-25T03:21:23.672Z,32
2018-05-25T03:22:24.387Z,32
2018-05-25T03:23:25.115Z,32
2018-05-25T03:24:25.845Z,32
2018-05-25T03:25:26.556Z,31
2018-05-25T03:26:27.287Z,31
2018-05-25T03:27:27.997Z,32
2018-05-25T03:28:28.714Z,32
2018-05-25T03:29:29.428Z,31
2018-05-25T03:30:30.148Z,31
2018-05-25T03:31:30.874Z,31
2018-05-25T03:32:31.588Z,31
2018-05-25T03:33:32.302Z,32
2018-05-25T03:34:33.017Z,31
2018-05-25T03:35:33.735Z,32
2018-05-25T03:36:34.451Z,31
2018-05-25T03:37:35.169Z,31
2018-05-25T03:38:35.885Z,31
2018-05-25T03:39:36.648Z,31
2018-05-25T03:40:37.331Z,31
2018-05-25T03:41:38.049Z,31
2018-05-25T03:42:38.764Z,31
2018-05-25T03:43:39.480Z,31
2018-05-25T03:44:40.208Z,31
2018-05-25T03:45:40.924Z,31
2018-05-25T03:46:41.640Z,31
2018-05-25T03:47:42.358Z,31
2018-05-25T03:48:43.079Z,32
2018-05-25T03:49:43.804Z,31
2018-05-25T03:50:44.531Z,31
2018-05-25T03:51:45.247Z,31
2018-05-25T03:52:45.965Z,31
2018-05-25T03:53:46.681Z,31
2018-05-25T03:54:47.397Z,31
2018-05-25T03:55:48.117Z,31
2018-05-25T03:56:48.833Z,31
2018-05-25T03:57:49.560Z,31
2018-05-25T03:58:50.278Z,32
2018-05-25T03:59:51.005Z,32
2018-05-25T04:00:51.729Z,31
2018-05-25T04:01:52.453Z,31
2018-05-25T04:02:53.170Z,31
2018-05-25T04:03:53.886Z,32
2018-05-25T04:04:54.603Z,31
2018-05-25T04:05:55.320Z,32
2018-05-25T04:06:56.036Z,32
2018-05-25T04:07:56.752Z,32
2018-05-25T04:08:57.470Z,31
2018-05-25T04:09:58.200Z,32
2018-05-25T04:10:58.915Z,31
2018-05-25T04:11:59.633Z,32
2018-05-25T04:13:00.349Z,31
2018-05-25T04:14:01.066Z,32
2018-05-25T04:15:01.785Z,31
2018-05-25T04:16:02.502Z,32
2018-05-25T04:17:03.217Z,32
2018-05-25T04:18:03.946Z,31
2018-05-25T04:19:04.664Z,32
2018-05-25T04:20:05.381Z,31
2018-05-25T04:21:06.097Z,32
2018-05-25T04:22:06.813Z,32
2018-05-25T04:23:07.532Z,32
2018-05-25T04:24:08.249Z,31
2018-05-25T04:25:08.966Z,32
2018-05-25T04:26:09.683Z,32
2018-05-25T04:27:10.399Z,32
2018-05-25T04:28:11.115Z,32
2018-05-25T04:29:11.832Z,32
2018-05-25T04:30:12.556Z,32
2018-05-25T04:31:13.274Z,32
2018-05-25T04:32:13.990Z,32
2018-05-25T04:33:14.716Z,32
2018-05-25T04:34:15.446Z,32
2018-05-25T04:35:16.172Z,32
2018-05-25T04:36:16.890Z,32
2018-05-25T04:37:17.607Z,32
2018-05-25T04:38:18.322Z,32
2018-05-25T04:39:19.049Z,32
2018-05-25T04:40:19.766Z,32
2018-05-25T04:41:20.481Z,32
2018-05-25T04:42:21.211Z,32
2018-05-25T04:43:21.928Z,32
2018-05-25T04:44:22.656Z,32
2018-05-25T04:45:23.373Z,32
2018-05-25T04:46:24.104Z,32
2018-05-25T04:47:24.822Z,32
2018-05-25T04:48:25.540Z,32
2018-05-25T04:49:26.257Z,32
2018-05-25T04:50:26.972Z,32
2018-05-25T04:51:27.692Z,32
2018-05-25T04:52:28.464Z,32
2018-05-25T04:53:29.133Z,32
2018-05-25T04:54:29.845Z,32
2018-05-25T04:55:30.564Z,32
2018-05-25T04:56:31.283Z,32
2018-05-25T04:57:32.015Z,32
2018-05-25T04:58:32.730Z,32
2018-05-25T04:59:33.455Z,32
2018-05-25T05:00:34.171Z,32
2018-05-25T05:01:34.886Z,32
2018-05-25T05:02:35.617Z,32
2018-05-25T05:03:36.333Z,33
2018-05-25T05:04:37.067Z,33
2018-05-25T05:05:37.779Z,32
2018-05-25T05:06:38.500Z,32
2018-05-25T05:07:39.217Z,32
2018-05-25T05:08:39.935Z,33
2018-05-25T05:09:40.655Z,32
2018-05-25T05:10:41.375Z,33
2018-05-25T05:11:42.091Z,33
2018-05-25T05:12:42.813Z,33
2018-05-25T05:13:43.539Z,33
2018-05-25T05:14:44.263Z,33
2018-05-25T05:15:44.973Z,33
2018-05-25T05:16:45.705Z,32
2018-05-25T05:17:46.421Z,33
2018-05-25T05:18:47.139Z,33
2018-05-25T05:19:47.858Z,33
2018-05-25T05:20:48.579Z,33
2018-05-25T05:21:49.296Z,33
2018-05-25T05:22:50.031Z,33
2018-05-25T05:23:50.757Z,33
2018-05-25T05:24:51.487Z,33
2018-05-25T05:25:52.205Z,32
2018-05-25T05:26:52.934Z,33
2018-05-25T05:27:53.652Z,33
2018-05-25T05:28:54.370Z,33
2018-05-25T05:29:55.090Z,33
2018-05-25T05:30:55.808Z,33
2018-05-25T05:31:56.525Z,32
2018-05-25T05:32:57.246Z,33
2018-05-25T05:33:57.965Z,33
2018-05-25T05:34:58.695Z,33
2018-05-25T05:35:59.414Z,32
2018-05-25T05:37:00.131Z,33
2018-05-25T05:38:00.850Z,33
2018-05-25T05:39:01.570Z,33
2018-05-25T05:40:02.290Z,33
2018-05-25T05:41:03.012Z,33
2018-05-25T05:42:03.728Z,33
2018-05-25T05:43:04.446Z,33
2018-05-25T05:44:05.163Z,33
2018-05-25T05:45:05.881Z,33
2018-05-25T05:46:06.601Z,33
2018-05-25T05:47:07.330Z,33
2018-05-25T05:48:08.065Z,33
2018-05-25T05:49:08.781Z,33
2018-05-25T05:50:09.501Z,33
2018-05-25T05:51:10.221Z,33
2018-05-25T05:52:10.940Z,33
2018-05-25T05:53:11.660Z,33
2018-05-25T05:54:12.381Z,34
2018-05-25T05:55:13.103Z,34
2018-05-25T05:56:13.820Z,34
2018-05-25T05:57:14.551Z,34
2018-05-25T05:58:15.272Z,34
2018-05-25T05:59:15.991Z,34
2018-05-25T06:00:16.713Z,34
2018-05-25T06:01:17.444Z,34
2018-05-25T06:02:18.165Z,34
2018-05-25T06:03:18.885Z,34
2018-05-25T06:04:19.656Z,34
2018-05-25T06:05:20.329Z,34
2018-05-25T06:06:21.061Z,34
2018-05-25T06:07:21.788Z,34
2018-05-25T06:08:22.504Z,34
2018-05-25T06:09:23.225Z,35
2018-05-25T06:10:23.958Z,35
2018-05-25T06:11:24.677Z,35
2018-05-25T06:12:25.416Z,35
2018-05-25T06:13:26.121Z,34
2018-05-25T06:14:26.842Z,35
2018-05-25T06:15:27.565Z,35
2018-05-25T06:16:28.285Z,35
2018-05-25T06:17:29.007Z,35
2018-05-25T06:18:29.731Z,36
2018-05-25T06:19:30.460Z,35
2018-05-25T06:20:31.196Z,35
2018-05-25T06:21:31.924Z,35
2018-05-25T06:22:32.651Z,35
2018-05-25T06:23:33.380Z,36
2018-05-25T06:24:34.099Z,35
2018-05-25T06:25:34.833Z,35
2018-05-25T06:26:35.552Z,36
2018-05-25T06:27:36.275Z,35
2018-05-25T06:28:37.008Z,36
2018-05-25T06:29:37.729Z,37
2018-05-25T06:30:38.448Z,36
2018-05-25T06:31:39.169Z,36
2018-05-25T06:32:39.903Z,36
2018-05-25T06:33:40.622Z,36
2018-05-25T06:34:41.390Z,37
2018-05-25T06:35:42.065Z,37
2018-05-25T06:36:42.784Z,37
2018-05-25T06:37:43.506Z,37
2018-05-25T06:38:44.227Z,37
2018-05-25T06:39:44.950Z,38
2018-05-25T06:40:45.677Z,38
2018-05-25T06:41:46.395Z,37
2018-05-25T06:42:47.127Z,37
2018-05-25T06:43:47.848Z,37
2018-05-25T06:44:48.572Z,38
2018-05-25T06:45:49.308Z,38
2018-05-25T06:46:50.026Z,38
2018-05-25T06:47:50.753Z,38
2018-05-25T06:48:51.485Z,40
2018-05-25T06:49:52.223Z,40
2018-05-25T06:50:52.948Z,40
2018-05-25T06:51:53.670Z,40
2018-05-25T06:52:54.393Z,41
2018-05-25T06:53:55.118Z,41
2018-05-25T06:54:55.849Z,41
2018-05-25T06:55:56.571Z,41
2018-05-25T06:56:57.295Z,41
2018-05-25T06:57:58.044Z,41
2018-05-25T06:58:58.744Z,42
2018-05-25T06:59:59.468Z,43
2018-05-25T07:01:00.193Z,42
2018-05-25T07:02:00.915Z,42
2018-05-25T07:03:01.639Z,41
2018-05-25T07:04:02.375Z,41
2018-05-25T07:05:03.087Z,42
2018-05-25T07:06:03.812Z,41
2018-05-25T07:07:04.531Z,41
2018-05-25T07:08:05.252Z,42
2018-05-25T07:09:05.976Z,41
2018-05-25T07:10:06.700Z,41
2018-05-25T07:11:07.424Z,41
2018-05-25T07:12:08.159Z,41
2018-05-25T07:13:08.896Z,41
2018-05-25T07:14:09.630Z,42
2018-05-25T07:15:10.351Z,42
2018-05-25T07:16:11.073Z,41
2018-05-25T07:17:11.797Z,41
2018-05-25T07:18:12.521Z,42
2018-05-25T07:19:13.243Z,42
2018-05-25T07:20:13.964Z,43
2018-05-25T07:21:14.686Z,42
2018-05-25T07:22:15.419Z,42
2018-05-25T07:23:16.140Z,43
2018-05-25T07:24:16.873Z,43
2018-05-25T07:25:17.594Z,42
2018-05-25T07:26:18.326Z,43
2018-05-25T07:27:19.049Z,43
2018-05-25T07:28:19.773Z,43
2018-05-25T07:29:20.507Z,44
2018-05-25T07:30:21.241Z,45
2018-05-25T07:31:21.969Z,46
2018-05-25T07:32:22.695Z,45
2018-05-25T07:33:23.438Z,46
2018-05-25T07:34:24.154Z,48
2018-05-25T07:35:24.879Z,48
2018-05-25T07:36:25.606Z,48
2018-05-25T07:37:26.333Z,49
2018-05-25T07:38:27.059Z,50
2018-05-25T07:39:27.788Z,50
2018-05-25T07:40:28.518Z,52
2018-05-25T07:41:29.260Z,51
2018-05-25T07:42:29.988Z,53
2018-05-25T07:43:30.719Z,54
2018-05-25T07:44:31.463Z,55
2018-05-25T07:45:32.205Z,55
2018-05-25T07:46:32.943Z,57
2018-05-25T07:47:33.670Z,56
2018-05-25T07:48:34.413Z,56
2018-05-25T07:49:35.147Z,55
2018-05-25T07:50:35.879Z,55
2018-05-25T07:51:36.611Z,56
2018-05-25T07:52:37.339Z,56
2018-05-25T07:53:38.067Z,56
2018-05-25T07:54:38.799Z,56
2018-05-25T07:55:39.530Z,56
2018-05-25T07:56:40.257Z,55
2018-05-25T07:57:40.991Z,54
2018-05-25T07:58:41.723Z,55
2018-05-25T07:59:42.467Z,57
2018-05-25T08:00:43.199Z,58
2018-05-25T08:01:43.933Z,57
2018-05-25T08:02:44.668Z,56
2018-05-25T08:03:45.408Z,56
2018-05-25T08:04:46.138Z,57
2018-05-25T08:05:46.873Z,58
2018-05-25T08:06:47.607Z,59
2018-05-25T08:07:48.336Z,60
2018-05-25T08:08:49.068Z,61
2018-05-25T08:09:49.852Z,60
2018-05-25T08:10:50.541Z,59
2018-05-25T08:11:51.267Z,61
2018-05-25T08:12:51.999Z,61
2018-05-25T08:13:52.731Z,62
2018-05-25T08:14:53.461Z,62
2018-05-25T08:15:54.227Z,62
2018-05-25T08:16:54.940Z,62
2018-05-25T08:17:55.680Z,64
2018-05-25T08:18:56.420Z,66
2018-05-25T08:19:57.151Z,67
2018-05-25T08:20:57.885Z,68
2018-05-25T08:21:58.630Z,68
2018-05-25T08:22:59.348Z,68
2018-05-25T08:24:00.089Z,67
2018-05-25T08:25:00.822Z,66
2018-05-25T08:26:01.603Z,66
2018-05-25T08:27:02.305Z,66
2018-05-25T08:28:03.037Z,65
2018-05-25T08:29:03.770Z,62
2018-05-25T08:30:04.509Z,65
2018-05-25T08:31:05.243Z,65
2018-05-25T08:32:05.984Z,66
2018-05-25T08:33:06.716Z,66
2018-05-25T08:34:07.463Z,66
2018-05-25T08:35:08.198Z,66
2018-05-25T08:36:08.930Z,67
2018-05-25T08:37:09.665Z,69
2018-05-25T08:38:10.398Z,71
2018-05-25T08:39:11.136Z,71
2018-05-25T08:40:11.884Z,71
2018-05-25T08:41:12.612Z,72
2018-05-25T08:42:13.346Z,72
2018-05-25T08:43:14.149Z,74
2018-05-25T08:44:14.826Z,73
2018-05-25T08:45:15.564Z,75
2018-05-25T08:46:16.296Z,75
2018-05-25T08:47:17.030Z,75
2018-05-25T08:48:17.764Z,76
2018-05-25T08:49:18.502Z,75
2018-05-25T08:50:19.236Z,76
2018-05-25T08:51:19.975Z,75
2018-05-25T08:52:20.718Z,75
2018-05-25T08:53:21.552Z,76
2018-05-25T08:54:22.200Z,76
2018-05-25T08:55:22.938Z,77
2018-05-25T08:56:23.673Z,76
2018-05-25T08:57:24.420Z,76
2018-05-25T08:58:25.157Z,76
2018-05-25T08:59:25.892Z,76
2018-05-25T09:00:26.632Z,77
2018-05-25T09:01:27.367Z,76
2018-05-25T09:02:28.102Z,76
2018-05-25T09:03:28.849Z,75
2018-05-25T09:04:29.592Z,76
2018-05-25T09:05:30.325Z,76
2018-05-25T09:06:31.061Z,76
2018-05-25T09:07:31.801Z,74
2018-05-25T09:08:32.550Z,75
2018-05-25T09:09:33.283Z,75
2018-05-25T09:10:34.021Z,76
2018-05-25T09:11:34.769Z,76
2018-05-25T09:12:35.509Z,76
2018-05-25T09:13:36.258Z,76
2018-05-25T09:14:36.998Z,75
2018-05-25T09:15:37.738Z,75
2018-05-25T09:16:38.479Z,75
2018-05-25T09:17:39.218Z,74
2018-05-25T09:18:39.963Z,74
2018-05-25T09:19:40.711Z,72
2018-05-25T09:20:41.469Z,71
2018-05-25T09:21:42.243Z,70
2018-05-25T09:22:42.981Z,69
2018-05-25T09:23:43.725Z,68
2018-05-25T09:24:44.469Z,69
2018-05-25T09:25:45.211Z,72
2018-05-25T09:26:45.956Z,73
2018-05-25T09:27:46.704Z,72
2018-05-25T09:28:47.449Z,72
2018-05-25T09:29:48.202Z,74
2018-05-25T09:30:48.980Z,75
2018-05-25T09:31:49.696Z,76
2018-05-25T09:32:50.454Z,76
2018-05-25T09:33:51.210Z,77
2018-05-25T09:34:51.954Z,77
2018-05-25T09:35:52.703Z,76
2018-05-25T09:36:53.446Z,74
2018-05-25T09:37:54.189Z,73
2018-05-25T09:38:54.938Z,73
2018-05-25T09:39:55.679Z,72
2018-05-25T09:40:56.422Z,73
2018-05-25T09:41:57.166Z,72
2018-05-25T09:42:57.909Z,72
2018-05-25T09:43:58.651Z,70
2018-05-25T09:44:59.393Z,66
2018-05-25T09:46:00.138Z,66
2018-05-25T09:47:00.888Z,62
2018-05-25T09:48:01.629Z,63
2018-05-25T09:49:02.371Z,63
2018-05-25T09:50:03.117Z,62
2018-05-25T09:51:03.852Z,61
2018-05-25T09:52:04.595Z,63
2018-05-25T09:53:05.339Z,61
2018-05-25T09:54:06.098Z,61
2018-05-25T09:55:06.832Z,61
2018-05-25T09:56:07.602Z,60
2018-05-25T09:57:08.334Z,60
2018-05-25T09:58:09.089Z,61
2018-05-25T09:59:09.842Z,63
2018-05-25T10:00:10.585Z,61
2018-05-25T10:01:11.329Z,61
2018-05-25T10:02:12.073Z,58
2018-05-25T10:03:12.821Z,57
2018-05-25T10:04:13.570Z,59
2018-05-25T10:05:14.307Z,54
2018-05-25T10:06:15.047Z,53
2018-05-25T10:07:15.792Z,52
2018-05-25T10:08:16.532Z,51
2018-05-25T10:09:17.287Z,52
2018-05-25T10:10:18.025Z,53
2018-05-25T10:11:18.768Z,57
2018-05-25T10:12:19.506Z,60
2018-05-25T10:13:20.244Z,65
2018-05-25T10:14:20.990Z,64
2018-05-25T10:15:21.741Z,67
2018-05-25T10:16:22.491Z,69
2018-05-25T10:17:23.249Z,67
2018-05-25T10:18:23.994Z,67
2018-05-25T10:19:24.748Z,67
2018-05-25T10:20:25.498Z,65
2018-05-25T10:21:26.254Z,66
2018-05-25T10:22:26.995Z,61
2018-05-25T10:23:27.740Z,61
2018-05-25T10:24:28.483Z,63
2018-05-25T10:25:29.226Z,66
2018-05-25T10:26:29.981Z,67
2018-05-25T10:27:30.720Z,67
2018-05-25T10:28:31.463Z,67
2018-05-25T10:29:32.203Z,67
2018-05-25T10:30:32.942Z,65
2018-05-25T10:31:33.689Z,65
2018-05-25T10:32:34.427Z,62
2018-05-25T10:33:35.173Z,61
2018-05-25T10:34:35.913Z,62
2018-05-25T10:35:36.658Z,64
2018-05-25T10:36:37.402Z,64
2018-05-25T10:37:38.146Z,66
2018-05-25T10:38:38.901Z,66
2018-05-25T10:39:39.641Z,66
2018-05-25T10:40:40.383Z,65
2018-05-25T10:41:41.130Z,64
2018-05-25T10:42:41.872Z,62
2018-05-25T10:43:42.616Z,62
2018-05-25T10:44:43.355Z,61
2018-05-25T10:45:44.170Z,61
2018-05-25T10:46:44.851Z,61
2018-05-25T10:47:45.589Z,62
2018-05-25T10:48:46.331Z,60
2018-05-25T10:49:47.072Z,63
2018-05-25T10:50:47.814Z,62
2018-05-25T10:51:48.559Z,59
2018-05-25T10:52:49.294Z,56
2018-05-25T10:53:50.045Z,55
2018-05-25T10:54:50.787Z,55
2018-05-25T10:55:51.535Z,55
2018-05-25T10:56:52.270Z,53
2018-05-25T10:57:53.015Z,53
2018-05-25T10:58:53.755Z,52
2018-05-25T10:59:54.489Z,50
2018-05-25T11:00:55.233Z,49
2018-05-25T11:01:55.990Z,49
2018-05-25T11:02:56.725Z,52
2018-05-25T11:03:57.463Z,51
2018-05-25T11:04:58.206Z,53
2018-05-25T11:05:58.948Z,53
2018-05-25T11:06:59.690Z,55
2018-05-25T11:08:00.427Z,57
2018-05-25T11:09:01.165Z,59
2018-05-25T11:10:01.919Z,61
2018-05-25T11:11:02.647Z,62
2018-05-25T11:12:03.388Z,63
2018-05-25T11:13:04.123Z,61
2018-05-25T11:14:04.861Z,59
2018-05-25T11:15:05.600Z,59
2018-05-25T11:16:06.342Z,59
2018-05-25T11:17:07.085Z,58
2018-05-25T11:18:07.831Z,56
2018-05-25T11:19:08.571Z,55
2018-05-25T11:20:09.308Z,53
2018-05-25T11:21:10.045Z,51
2018-05-25T11:22:10.788Z,51
2018-05-25T11:23:11.530Z,52
2018-05-25T11:24:12.278Z,50
2018-05-25T11:25:13.013Z,51
2018-05-25T11:26:13.754Z,52
2018-05-25T11:27:14.505Z,52
2018-05-25T11:28:15.258Z,52
2018-05-25T11:29:15.994Z,53
2018-05-25T11:30:16.733Z,55
2018-05-25T11:31:17.468Z,57
2018-05-25T11:32:18.202Z,59
2018-05-25T11:33:18.942Z,60
2018-05-25T11:34:19.680Z,57
2018-05-25T11:35:20.410Z,57
2018-05-25T11:36:21.145Z,56
2018-05-25T11:37:21.882Z,55
2018-05-25T11:38:22.624Z,54
2018-05-25T11:39:23.379Z,56
2018-05-25T11:40:24.127Z,59
2018-05-25T11:41:24.877Z,61
2018-05-25T11:42:25.617Z,61
2018-05-25T11:43:26.360Z,62
2018-05-25T11:44:27.099Z,61
2018-05-25T11:45:27.840Z,58
2018-05-25T11:46:28.584Z,58
2018-05-25T11:47:29.332Z,60
2018-05-25T11:48:30.080Z,61
2018-05-25T11:49:30.815Z,61
2018-05-25T11:50:31.547Z,62
2018-05-25T11:51:32.289Z,62
2018-05-25T11:52:33.021Z,61
2018-05-25T11:53:33.754Z,61
2018-05-25T11:54:34.485Z,60
2018-05-25T11:55:35.220Z,58
2018-05-25T11:56:35.957Z,55
2018-05-25T11:57:36.694Z,56
2018-05-25T11:58:37.425Z,56
2018-05-25T11:59:38.169Z,57
2018-05-25T12:00:38.898Z,57
2018-05-25T12:01:39.627Z,57
2018-05-25T12:02:40.367Z,58
2018-05-25T12:03:41.099Z,58
2018-05-25T12:04:41.829Z,58
2018-05-25T12:05:42.561Z,56
2018-05-25T12:06:43.293Z,56
2018-05-25T12:07:44.024Z,57
2018-05-25T12:08:44.753Z,57
2018-05-25T12:09:45.487Z,57
2018-05-25T12:10:46.220Z,56
2018-05-25T12:11:46.955Z,56
2018-05-25T12:12:47.693Z,55
2018-05-25T12:13:48.422Z,56
2018-05-25T12:14:49.154Z,56
2018-05-25T12:15:49.887Z,56
2018-05-25T12:16:50.635Z,53
2018-05-25T12:17:51.369Z,53
2018-05-25T12:18:52.105Z,52
2018-05-25T12:19:52.843Z,53
2018-05-25T12:20:53.583Z,56
2018-05-25T12:21:54.320Z,55
2018-05-25T12:22:55.058Z,55
2018-05-25T12:23:55.799Z,53
2018-05-25T12:24:56.538Z,56
2018-05-25T12:25:57.291Z,55
2018-05-25T12:26:58.036Z,54
2018-05-25T12:27:58.790Z,53
2018-05-25T12:28:59.531Z,53
2018-05-25T12:30:00.273Z,53
2018-05-25T12:31:01.016Z,53
2018-05-25T12:32:01.768Z,52
2018-05-25T12:33:02.512Z,54
2018-05-25T12:34:03.254Z,53
2018-05-25T12:35:04.001Z,52
2018-05-25T12:36:04.737Z,51
2018-05-25T12:37:05.477Z,52
2018-05-25T12:38:06.219Z,52
2018-05-25T12:39:06.958Z,52
2018-05-25T12:40:07.701Z,50
2018-05-25T12:41:08.452Z,49
2018-05-25T12:42:09.186Z,50
2018-05-25T12:43:09.922Z,49
2018-05-25T12:44:10.660Z,48
2018-05-25T12:45:11.395Z,47
2018-05-25T12:46:12.136Z,47
2018-05-25T12:47:12.888Z,47
2018-05-25T12:48:13.624Z,47
2018-05-25T12:49:14.362Z,45
2018-05-25T12:50:15.100Z,48
2018-05-25T12:51:15.853Z,51
2018-05-25T12:52:16.589Z,52
2018-05-25T12:53:17.333Z,52
2018-05-25T12:54:18.072Z,52
2018-05-25T12:55:18.817Z,51
2018-05-25T12:56:19.555Z,49
2018-05-25T12:57:20.308Z,49
2018-05-25T12:58:21.048Z,50
2018-05-25T12:59:21.787Z,50
2018-05-25T13:00:22.533Z,49
2018-05-25T13:01:23.280Z,48
2018-05-25T13:02:24.021Z,47
2018-05-25T13:03:24.759Z,47
2018-05-25T13:04:25.495Z,49
2018-05-25T13:05:26.232Z,52
2018-05-25T13:06:26.979Z,53
2018-05-25T13:07:27.718Z,53
2018-05-25T13:08:28.447Z,53
2018-05-25T13:09:29.187Z,54
2018-05-25T13:10:29.920Z,54
2018-05-25T13:11:30.643Z,54
2018-05-25T13:12:31.383Z,57
2018-05-25T13:13:32.115Z,58
2018-05-25T13:14:32.854Z,60
2018-05-25T13:15:33.583Z,60
2018-05-25T13:16:34.312Z,60
2018-05-25T13:17:35.037Z,58
2018-05-25T13:18:35.768Z,58
2018-05-25T13:19:36.508Z,59
2018-05-25T13:20:37.248Z,57
2018-05-25T13:21:38.015Z,56
2018-05-25T13:22:38.703Z,54
2018-05-25T13:23:39.433Z,52
2018-05-25T13:24:40.175Z,51
2018-05-25T13:25:40.903Z,52
2018-05-25T13:26:41.643Z,50
2018-05-25T13:27:42.373Z,50
2018-05-25T13:28:43.102Z,49
2018-05-25T13:29:43.831Z,48
2018-05-25T13:30:44.559Z,49
2018-05-25T13:31:45.290Z,49
2018-05-25T13:32:46.020Z,49
2018-05-25T13:33:46.758Z,50
2018-05-25T13:34:47.487Z,49
2018-05-25T13:35:48.221Z,49
2018-05-25T13:36:48.955Z,49
2018-05-25T13:37:49.685Z,48
2018-05-25T13:38:50.419Z,46
2018-05-25T13:39:51.156Z,47
2018-05-25T13:40:51.885Z,46
2018-05-25T13:41:52.625Z,46
2018-05-25T13:42:53.353Z,46
2018-05-25T13:43:54.082Z,48
2018-05-25T13:44:54.822Z,48
2018-05-25T13:45:55.558Z,48
2018-05-25T13:46:56.291Z,49
2018-05-25T13:47:57.019Z,49
2018-05-25T13:48:57.748Z,49
2018-05-25T13:49:58.476Z,49
2018-05-25T13:50:59.203Z,49
2018-05-25T13:51:59.931Z,49
2018-05-25T13:53:00.658Z,50
2018-05-25T13:54:01.384Z,51
2018-05-25T13:55:02.111Z,52
2018-05-25T13:56:02.838Z,52
2018-05-25T13:57:03.567Z,51
2018-05-25T13:58:04.292Z,50
2018-05-25T13:59:05.018Z,50
2018-05-25T14:00:05.743Z,51
2018-05-25T14:01:06.473Z,51
2018-05-25T14:02:07.200Z,52
2018-05-25T14:03:07.925Z,52
2018-05-25T14:04:08.652Z,52
2018-05-25T14:05:09.377Z,52
2018-05-25T14:06:10.116Z,51
2018-05-25T14:07:10.836Z,51
2018-05-25T14:08:11.575Z,51
2018-05-25T14:09:12.315Z,52
2018-05-25T14:10:13.045Z,54
2018-05-25T14:11:13.775Z,54
2018-05-25T14:12:14.511Z,55
2018-05-25T14:13:15.238Z,55
2018-05-25T14:14:15.965Z,55
2018-05-25T14:15:16.691Z,56
2018-05-25T14:16:17.418Z,55
2018-05-25T14:17:18.149Z,55
2018-05-25T14:18:18.883Z,55
2018-05-25T14:19:19.612Z,55
2018-05-25T14:20:20.337Z,56
2018-05-25T14:21:21.068Z,57
2018-05-25T14:22:21.802Z,56
2018-05-25T14:23:22.540Z,58
2018-05-25T14:24:23.265Z,59
2018-05-25T14:25:24.002Z,60